Hewitt, NJ (07421)

4:13 AM EST on February 11, 2016 (GMT -0500)
Weather Station EW0157 | | Change Station
CLOSE
Current Station
Personal Weather Station
Location: West Milford, NJ
Elevation: 675 ft
Nearby Weather Stations

Elev 675 ft 41.15 °N, 74.35 °W | Updated 1 minute ago

Overcast
Overcast
21.3 °F
Feels Like 16 °F
N
4.0
Wind Variable Wind from NW
Gusts 4.0 mph

Today
High -- | Low -- °F
--% Chance of Precip.
Yesterday
High -- | Low -- °F
Precip. -- in
Pressure 29.79 in
Visibility 10.0 miles
Clouds Few 9000 ft
Windchill 16 °F
Dew Point 6 °F
Humidity 50%
Rainfall 0.00 in
Snow Depth Not available.
6:57 AM 5:26 PM
Waxing Crescent, 10% visible
METAR KFWN 110853Z AUTO 28010G15KT 230V310 10SM FEW090 M06/M17 A2978 RMK AO2 SLP088 60000 T10611172 51007
Pressure 29.79 in
Visibility 10.0 miles
Clouds Few 9000 ft
Windchill 16 °F
Dew Point 6 °F
Humidity 50%
Rainfall 0.00 in
Snow Depth Not available.
6:57 AM 5:26 PM
Waxing Crescent, 10% visible
METAR KFWN 110853Z AUTO 28010G15KT 230V310 10SM FEW090 M06/M17 A2978 RMK AO2 SLP088 60000 T10611172 51007

10-Day Weather Forecast

Almanac

Astronomy

Feb. 11, 2016 Rise Set
Actual Time
Civil Twilight
Nautical Twilight
Astronomical Twilight
Moon
Length of Visible Light
Length of Day
Tomorrow will be .
, % of the Moon is Illuminated

Today's Extremes

State Highs State Lows

Community

WunderPhotos

Upload Photos

1,892,030 photos uploaded!

WunderBlog® & News

Nearby

Air Quality

  Air Quality AQ Index Pollutant
Not available.

Snow Depth

Station Depth Elevation

Earthquake Activity

City Distance Mag. Time & Date
Minimum magnitude displayed is 2.5.

Coastal Water Temperatures

Place Temperature

Stations

Nearby Weather Stations

Station Location Temp. Windchill Dew Point Humidity Wind Precip. Elev Updated Type
                   

Watches & Warnings

There are currently no watches in effect.